Last 24 Hours

Top Stn/Summit

5 Minute Data | America/Los_Angeles
as of 12/1/22 9:40 PM PST
Date & Time Temp (°F) RH (%) Dew Pt (°F) Wet Bulb (°F) Wind Dir (°) Wind Spd (mph) Wind Gust (mph) Wind Gst Dir (°)
12/1/22 - 2140 15.4 92 13.7 15.0 SW | 222 53.1 83.2 SSW | 213
12/1/22 - 2135 15.6 92 13.8 15.1 SW | 225 46.0 66.3 S | 177
12/1/22 - 2130 15.6 92 13.8 15.1 SW | 225 52.3 66.0 WSW | 247
12/1/22 - 2125 15.6 92 13.8 15.1 SW | 219 62.1 82.5 SSW | 207
12/1/22 - 2120 15.7 92 13.9 15.2 SSW | 212 54.7 75.2 SW | 227
12/1/22 - 2115 15.7 92 13.9 15.3 SW | 219 58.4 85.0 WSW | 244
12/1/22 - 2110 15.7 93 13.9 15.2 SW | 224 54.3 73.3 SW | 219
12/1/22 - 2105 15.7 93 13.9 15.2 SW | 214 45.5 67.7 SW | 215
12/1/22 - 2100 15.6 93 13.8 15.1 SW | 221 47.7 63.5 WSW | 253
12/1/22 - 2055 15.6 93 13.8 15.1 SW | 225 46.5 64.4 SW | 231
12/1/22 - 2050 15.6 93 13.8 15.1 SW | 222 44.0 59.0 WSW | 249
12/1/22 - 2045 15.6 92 13.8 15.1 SW | 224 52.6 66.5 SW | 220
12/1/22 - 2040 15.6 92 13.8 15.1 SW | 230 53.7 65.6 SSW | 209
12/1/22 - 2035 15.4 93 13.7 15.0 SW | 220 43.3 58.1 WSW | 251
12/1/22 - 2030 15.3 93 13.6 14.9 SW | 225 49.4 60.8 WSW | 242
12/1/22 - 2025 15.3 92 13.6 14.9 SW | 229 54.9 68.0 WSW | 248
12/1/22 - 2020 15.3 93 13.6 14.9 SW | 225 58.9 69.6 SSW | 201
12/1/22 - 2015 15.4 93 13.6 14.9 SW | 224 57.2 68.5 WSW | 243
12/1/22 - 2010 15.3 93 13.6 14.9 SW | 224 54.4 62.2 SW | 223
12/1/22 - 2005 15.2 93 13.5 14.8 SW | 226 54.5 66.3 SW | 231
12/1/22 - 2000 15.1 93 13.4 14.7 SW | 221 59.7 72.4 SSW | 210
12/1/22 - 1955 15.0 92 13.2 14.6 SW | 225 60.9 84.9 SW | 216
12/1/22 - 1950 15.0 92 13.2 14.6 SW | 225 62.6 75.7 SSW | 200
12/1/22 - 1945 15.0 92 13.2 14.6 SW | 223 54.5 72.5 SW | 226
12/1/22 - 1940 15.0 92 13.2 14.6 SW | 225 54.4 66.4 SW | 234
12/1/22 - 1935 14.9 92 13.1 14.4 SW | 222 57.9 67.1 WSW | 242
12/1/22 - 1930 14.7 92 12.9 14.3 SW | 225 52.4 62.3 SW | 221
12/1/22 - 1925 14.7 92 12.9 14.3 SW | 228 51.3 61.6 WSW | 240
12/1/22 - 1920 14.6 92 12.8 14.2 SW | 229 48.3 60.1 SW | 215
12/1/22 - 1915 14.6 92 12.7 14.2 SW | 223 50.0 66.0 WSW | 239
12/1/22 - 1910 14.5 92 12.6 14.1 SW | 223 51.2 63.2 SW | 227
12/1/22 - 1905 14.5 92 12.6 14.1 SW | 224 53.1 63.9 WSW | 241
12/1/22 - 1900 14.4 92 12.5 14.0 SW | 225 50.1 64.6 SW | 232
12/1/22 - 1855 14.4 92 12.5 14.0 SW | 222 52.2 60.4 WSW | 237
12/1/22 - 1850 14.4 92 12.5 14.0 SW | 228 49.2 59.9 SW | 235
12/1/22 - 1845 14.5 92 12.6 14.1 SW | 226 52.1 59.8 SW | 215
12/1/22 - 1840 14.5 92 12.6 14.1 SW | 228 54.1 62.6 SW | 223
12/1/22 - 1835 14.5 92 12.6 14.1 SW | 224 51.2 62.4 SW | 218
12/1/22 - 1830 14.5 92 12.6 14.1 SW | 228 54.0 63.8 SW | 233
12/1/22 - 1825 14.5 92 12.7 14.1 SW | 227 53.2 63.2 SW | 232
12/1/22 - 1820 14.4 92 12.5 14.0 SW | 230 53.2 66.3 WSW | 238
12/1/22 - 1815 14.4 92 12.5 14.0 SW | 228 51.6 64.0 WSW | 242
12/1/22 - 1810 14.4 92 12.5 14.0 SW | 228 53.4 63.4 SSW | 196
12/1/22 - 1805 14.4 92 12.5 14.0 SW | 227 54.2 60.8 SW | 225
12/1/22 - 1800 14.3 92 12.4 13.9 SW | 228 49.5 59.2 SW | 233
12/1/22 - 1755 14.3 92 12.4 13.9 SW | 225 51.2 57.3 SSW | 206
12/1/22 - 1750 14.4 92 12.5 14.0 SW | 226 50.1 58.4 WSW | 242
12/1/22 - 1745 14.4 92 12.4 14.0 SW | 226 51.9 63.2 SW | 228
12/1/22 - 1740 14.4 92 12.5 14.0 SW | 226 55.1 64.4 SW | 223
12/1/22 - 1735 14.4 92 12.5 14.0 SW | 230 48.5 55.9 SW | 222
12/1/22 - 1730 14.4 92 12.5 14.0 SW | 230 49.8 60.4 WSW | 243
12/1/22 - 1725 14.4 92 12.4 14.0 SW | 229 49.1 57.8 SSW | 200
12/1/22 - 1720 14.4 92 12.5 14.0 SW | 231 52.2 62.2 WSW | 239
12/1/22 - 1715 14.5 92 12.5 14.1 SW | 229 53.7 62.8 SW | 214
12/1/22 - 1710 14.6 92 12.7 14.2 SW | 226 51.7 60.2 SW | 235
12/1/22 - 1705 14.6 92 12.8 14.2 SW | 228 48.1 58.4 SW | 227
12/1/22 - 1700 14.5 92 12.6 14.1 SW | 228 49.6 58.7 WSW | 249
12/1/22 - 1655 14.6 92 12.6 14.2 SW | 227 55.1 63.7 SW | 233
12/1/22 - 1650 14.7 92 12.8 14.3 SW | 234 50.1 62.0 WSW | 242
12/1/22 - 1645 14.8 92 12.9 14.3 SW | 231 47.5 60.4 SW | 226
12/1/22 - 1640 14.7 92 12.8 14.3 SW | 230 46.8 57.8 SW | 232
12/1/22 - 1635 14.8 92 12.9 14.3 SW | 226 45.2 56.1 WSW | 241
12/1/22 - 1630 14.7 92 12.9 14.3 SW | 228 47.7 59.4 SW | 231
12/1/22 - 1625 14.8 92 12.8 14.3 SW | 225 51.2 63.5 S | 190
12/1/22 - 1620 14.8 92 12.9 14.3 SW | 226 48.2 60.4 SW | 229
12/1/22 - 1615 14.8 92 12.8 14.3 SW | 230 51.4 61.4 WSW | 240
12/1/22 - 1610 14.6 92 12.7 14.2 SW | 228 49.3 60.9 SW | 225
12/1/22 - 1605 14.8 92 12.9 14.3 SW | 228 52.0 62.7 SW | 231
12/1/22 - 1600 14.8 92 12.9 14.3 SW | 230 48.2 56.6 WSW | 240
12/1/22 - 1555 14.8 92 12.8 14.3 SW | 219 46.5 53.1 SSW | 203
12/1/22 - 1550 14.8 92 12.9 14.4 SW | 224 46.2 56.0 SSW | 206
12/1/22 - 1545 14.8 92 12.9 14.4 SW | 221 49.0 57.2 WSW | 240
12/1/22 - 1540 14.8 92 12.8 14.3 SW | 222 50.0 58.3 SSW | 202
12/1/22 - 1535 14.8 92 12.9 14.3 SW | 220 48.7 56.0 WSW | 237
12/1/22 - 1530 14.8 92 12.8 14.3 SW | 220 49.5 57.5 SW | 220
12/1/22 - 1525 14.9 92 12.9 14.4 SW | 219 49.4 58.5 SW | 218
12/1/22 - 1520 14.9 92 13.0 14.4 SW | 221 49.8 55.8 SW | 234
12/1/22 - 1515 15.0 92 13.1 14.6 SW | 219 51.6 60.0 SW | 236
12/1/22 - 1510 15.0 92 13.1 14.6 SW | 221 50.0 57.3 S | 189
12/1/22 - 1505 15.0 92 13.2 14.6 SW | 221 46.4 57.3 S | 189
12/1/22 - 1500 15.0 92 13.1 14.6 SW | 217 49.4 59.5 SSW | 201
12/1/22 - 1455 15.0 92 13.2 14.6 SW | 231 51.7 58.7 SW | 227
12/1/22 - 1450 15.0 92 13.1 14.6 SW | 225 52.6 62.0 S | 191
12/1/22 - 1445 15.0 92 13.1 14.6 SW | 226 48.7 56.3 WSW | 240
12/1/22 - 1440 15.0 92 13.1 14.6 SW | 224 54.1 66.3 WSW | 238
12/1/22 - 1435 15.0 92 13.1 14.6 SW | 214 53.0 65.5 SW | 229
12/1/22 - 1430 15.0 92 13.2 14.6 SW | 218 48.3 57.9 S | 184
12/1/22 - 1425 14.9 92 13.0 14.4 SW | 216 49.1 62.4 WSW | 237
12/1/22 - 1420 14.9 92 13.0 14.5 SSW | 212 50.4 61.9 SW | 232
12/1/22 - 1415 14.9 92 13.0 14.5 SW | 217 53.3 63.4 WSW | 239
12/1/22 - 1410 15.0 92 13.1 14.6 SW | 216 49.0 60.8 SSW | 212
12/1/22 - 1405 15.0 92 13.1 14.6 SW | 219 47.5 54.8 SSW | 192
12/1/22 - 1400 15.0 92 13.1 14.6 SW | 219 48.7 56.9 SSW | 203
12/1/22 - 1355 15.0 92 13.1 14.6 SW | 223 48.9 59.3 SW | 217
12/1/22 - 1350 15.2 92 13.4 14.8 SW | 224 49.5 59.2 WSW | 252
12/1/22 - 1345 15.2 92 13.4 14.8 SW | 221 50.2 59.2 WSW | 239
12/1/22 - 1340 15.2 92 13.4 14.8 SW | 226 49.5 57.3 SW | 236
12/1/22 - 1335 15.1 92 13.2 14.7 SW | 214 50.0 58.4 S | 187
12/1/22 - 1330 15.1 92 13.2 14.7 SW | 217 51.8 61.6 SSW | 199
12/1/22 - 1325 15.2 92 13.4 14.8 SW | 214 51.1 62.0 S | 181
12/1/22 - 1320 15.2 92 13.4 14.8 SW | 220 51.0 63.8 SSE | 162
12/1/22 - 1315 15.2 92 13.4 14.8 SW | 218 50.7 58.8 SW | 230
12/1/22 - 1310 15.2 92 13.4 14.8 SW | 222 49.6 57.5 SW | 222
12/1/22 - 1305 15.2 92 13.3 14.8 SW | 228 54.7 64.9 SW | 223
12/1/22 - 1300 15.4 92 13.5 14.9 SW | 228 45.1 53.7 WSW | 247
12/1/22 - 1255 15.2 92 13.4 14.8 SW | 226 48.7 61.5 SSW | 192
12/1/22 - 1250 15.2 92 13.4 14.8 SW | 222 50.5 62.5 SSW | 202
12/1/22 - 1245 15.2 92 13.4 14.8 SW | 222 53.2 64.4 SW | 229
12/1/22 - 1240 15.2 92 13.3 14.8 SW | 220 54.6 61.7 SSW | 205
12/1/22 - 1235 15.4 92 13.5 14.9 SW | 223 49.2 58.3 SSW | 204
12/1/22 - 1230 15.4 92 13.5 14.9 SW | 219 49.0 55.7 SW | 229
12/1/22 - 1225 15.5 92 13.6 15.0 SW | 224 49.5 57.8 WSW | 241
12/1/22 - 1220 15.6 92 13.8 15.1 SW | 220 45.5 49.9 SW | 235
12/1/22 - 1215 15.6 92 13.7 15.1 SW | 224 42.2 49.6 SW | 220
12/1/22 - 1210 15.6 92 13.8 15.2 SW | 227 42.2 49.7 WSW | 246
12/1/22 - 1205 15.5 92 13.6 15.0 SW | 225 44.3 51.2 WSW | 246
12/1/22 - 1200 15.4 92 13.5 14.9 SW | 215 48.1 53.5 SW | 232
12/1/22 - 1155 15.4 92 13.5 14.9 SSW | 200 51.0 57.7 SSW | 195
12/1/22 - 1150 15.6 92 13.7 15.1 SSW | 212 50.2 58.7 SW | 223
12/1/22 - 1145 15.5 92 13.7 15.0 SSW | 200 52.8 61.6 SSW | 210
12/1/22 - 1140 15.5 92 13.7 15.0 SSW | 203 54.8 62.5 SSW | 211
12/1/22 - 1135 15.5 92 13.6 15.0 SSW | 203 56.0 65.2 SSE | 152
12/1/22 - 1130 15.5 92 13.6 15.0 SSW | 202 55.9 63.1 S | 177
12/1/22 - 1125 15.5 92 13.6 15.0 SSW | 199 54.8 65.6 SSE | 159
12/1/22 - 1120 15.4 92 13.5 14.9 SSW | 201 55.1 66.0 S | 183
12/1/22 - 1115 15.4 92 13.5 14.9 SSW | 197 52.7 60.0 S | 187
12/1/22 - 1110 15.2 92 13.4 14.8 SSW | 200 52.2 68.5 SSW | 199
12/1/22 - 1105 15.2 92 13.4 14.8 SSW | 204 52.3 60.7 SSW | 206
12/1/22 - 1100 15.1 92 13.3 14.7 SSW | 209 50.6 57.6 S | 188
12/1/22 - 1055 15.0 92 13.1 14.6 SSW | 205 46.2 53.0 SSE | 167
12/1/22 - 1050 15.0 92 13.1 14.6 SSW | 210 44.0 50.8 SSW | 206
12/1/22 - 1045 15.0 92 13.2 14.6 SW | 215 44.3 53.0 SW | 227
12/1/22 - 1040 14.8 92 12.9 14.3 SW | 214 47.2 53.7 WSW | 237
12/1/22 - 1035 14.6 92 12.8 14.2 SW | 214 47.8 53.7 SSW | 192
12/1/22 - 1030 14.7 92 12.7 14.2 SW | 216 44.3 50.9 SSW | 200
12/1/22 - 1025 14.5 92 12.6 14.1 SW | 218 44.9 50.8 SW | 234
12/1/22 - 1020 14.5 92 12.6 14.1 SW | 217 47.9 52.0 SSW | 210
12/1/22 - 1015 14.4 92 12.5 14.0 SW | 225 48.5 53.9 WSW | 239
12/1/22 - 1010 14.4 92 12.5 14.0 SW | 224 46.4 53.1 S | 186
12/1/22 - 1005 14.3 92 12.4 13.9 SW | 224 45.0 54.6 SW | 214
12/1/22 - 1000 14.4 92 12.4 14.0 SW | 221 45.1 53.5 SSW | 194
12/1/22 - 0955 14.4 92 12.4 14.0 SW | 224 48.9 55.5 SW | 214
12/1/22 - 0950 14.4 92 12.4 14.0 SW | 226 47.6 56.8 SW | 230
12/1/22 - 0945 14.5 92 12.6 14.1 SW | 222 46.2 52.3 SSW | 199
12/1/22 - 0940 14.5 92 12.6 14.1 SW | 226 45.4 52.5 SW | 234
12/1/22 - 0935 14.4 92 12.5 14.0 SW | 225 49.8 57.0 SW | 231
12/1/22 - 0930 14.5 92 12.6 14.1 SW | 220 51.4 57.9 SSW | 198
12/1/22 - 0925 14.6 92 12.7 14.2 SW | 223 52.2 59.1 SSW | 197
12/1/22 - 0920 14.6 92 12.7 14.2 SW | 223 49.6 57.3 SW | 216
12/1/22 - 0915 14.6 92 12.8 14.2 SW | 223 45.3 52.0 WSW | 246
12/1/22 - 0910 14.5 92 12.6 14.1 SW | 224 46.6 52.9 SSW | 210
12/1/22 - 0905 14.4 92 12.5 14.0 SW | 223 47.6 51.7 WSW | 239
12/1/22 - 0900 14.4 92 12.5 14.0 SW | 218 46.1 51.8 SSW | 193
12/1/22 - 0855 14.3 92 12.3 13.8 SSW | 211 49.8 55.2 SSW | 194
12/1/22 - 0850 14.3 92 12.4 13.8 SSW | 212 50.3 57.6 SW | 233
12/1/22 - 0845 14.3 92 12.4 13.9 SW | 214 49.9 56.0 SSW | 204
12/1/22 - 0840 14.2 92 12.2 13.8 SSW | 212 47.1 52.3 WSW | 241
12/1/22 - 0835 14.0 92 12.1 13.6 SSW | 210 46.2 51.8 SW | 236
12/1/22 - 0830 13.9 92 12.0 13.5 SSW | 208 48.0 54.6 SSE | 164
12/1/22 - 0825 13.9 92 12.0 13.5 SSW | 207 50.0 57.2 SW | 228
12/1/22 - 0820 13.8 92 11.8 13.4 SSW | 213 50.1 54.0 SSW | 206
12/1/22 - 0815 13.8 92 11.8 13.4 SW | 221 49.2 55.4 SSW | 209
12/1/22 - 0810 13.8 92 11.8 13.4 SW | 224 46.2 53.6 SW | 227
12/1/22 - 0805 13.7 92 11.7 13.3 SW | 222 50.0 54.9 WSW | 247
12/1/22 - 0800 13.7 92 11.7 13.3 SW | 225 48.8 56.5 SW | 224
12/1/22 - 0755 13.7 92 11.7 13.3 SW | 225 45.3 54.5 WSW | 248
12/1/22 - 0750 13.6 92 11.6 13.2 SW | 226 48.1 58.4 SW | 221
12/1/22 - 0745 13.6 92 11.6 13.2 SW | 229 47.5 60.0 WSW | 246
12/1/22 - 0740 13.6 92 11.6 13.2 SW | 226 46.1 53.7 WSW | 248
12/1/22 - 0735 13.6 92 11.6 13.2 SW | 228 49.0 58.2 WSW | 241
12/1/22 - 0730 13.6 92 11.6 13.2 SW | 230 51.1 57.8 SW | 218
12/1/22 - 0725 13.4 92 11.4 13.0 SW | 228 53.2 62.6 SW | 226
12/1/22 - 0720 13.6 92 11.6 13.2 SW | 227 51.9 60.1 WSW | 249
12/1/22 - 0715 13.4 92 11.4 13.0 SW | 228 49.8 57.1 SW | 232
12/1/22 - 0710 13.3 92 11.3 12.9 SW | 228 51.3 58.5 WSW | 242
12/1/22 - 0705 13.4 91 11.3 12.9 SW | 225 50.5 63.6 SW | 235
12/1/22 - 0700 13.3 92 11.3 12.9 SW | 226 52.9 61.4 WSW | 248
12/1/22 - 0655 13.3 92 11.3 12.9 SW | 227 52.7 63.2 SW | 228
12/1/22 - 0650 13.2 91 11.2 12.8 SW | 227 52.4 61.3 SW | 219
12/1/22 - 0645 13.1 91 11.0 12.7 SW | 231 53.1 61.4 WSW | 238
12/1/22 - 0640 13.1 91 11.0 12.7 SW | 227 51.0 59.8 SSW | 206
12/1/22 - 0635 13.1 91 11.1 12.7 SW | 231 52.5 60.9 WSW | 237
12/1/22 - 0630 13.1 91 11.0 12.7 SW | 232 51.5 59.6 WSW | 245
12/1/22 - 0625 13.1 91 11.0 12.7 WSW | 237 50.4 58.4 WSW | 251
12/1/22 - 0620 13.1 91 11.0 12.7 SW | 236 51.5 57.3 WSW | 244
12/1/22 - 0615 13.1 91 11.0 12.7 SW | 234 51.0 57.1 SW | 232
12/1/22 - 0610 13.0 91 10.9 12.6 SW | 236 51.7 57.0 SW | 218
12/1/22 - 0605 12.8 91 10.8 12.5 SW | 234 52.6 59.9 WSW | 237
12/1/22 - 0600 12.7 91 10.7 12.4 SW | 228 51.2 58.0 WSW | 241
12/1/22 - 0555 12.5 91 10.4 12.1 SW | 222 49.1 55.9 WSW | 237
12/1/22 - 0550 12.4 91 10.2 12.0 SW | 220 51.8 57.2 WSW | 242
12/1/22 - 0545 12.3 91 10.2 11.9 SW | 225 51.1 56.9 WSW | 240
12/1/22 - 0540 12.2 91 10.2 11.9 SW | 224 51.2 54.6 SW | 227
12/1/22 - 0535 12.4 91 10.2 12.0 SW | 223 48.2 53.3 SSW | 213
12/1/22 - 0530 12.5 91 10.4 12.1 SW | 224 46.3 52.3 SSW | 203
12/1/22 - 0525 12.5 91 10.4 12.1 SW | 227 46.1 51.8 SW | 223
12/1/22 - 0520 12.6 91 10.5 12.2 SSW | 213 43.8 49.5 SSW | 209
12/1/22 - 0515 12.7 91 10.6 12.3 SW | 214 42.9 47.9 S | 179
12/1/22 - 0510 12.7 91 10.6 12.4 SSW | 212 42.3 47.5 SW | 215
12/1/22 - 0505 12.8 91 10.7 12.4 SW | 222 43.7 50.1 SW | 219
12/1/22 - 0500 12.8 91 10.7 12.4 SW | 218 42.8 48.6 S | 179
12/1/22 - 0455 12.8 91 10.8 12.4 SW | 224 41.3 49.6 SW | 224
12/1/22 - 0450 13.0 91 10.9 12.6 SW | 224 41.0 46.8 SW | 216
12/1/22 - 0445 13.0 91 10.8 12.6 SW | 221 44.1 48.6 SSW | 198
12/1/22 - 0440 13.0 91 10.8 12.6 SW | 223 43.8 49.1 SW | 223
12/1/22 - 0435 13.0 91 10.8 12.6 SW | 221 44.6 50.8 SW | 236
12/1/22 - 0430 13.0 91 10.8 12.6 SW | 223 44.0 50.2 WSW | 238
12/1/22 - 0425 13.0 91 10.9 12.6 SW | 214 46.5 51.1 S | 188
12/1/22 - 0420 12.8 91 10.7 12.4 SW | 220 48.0 53.9 SW | 236
12/1/22 - 0415 12.8 91 10.7 12.4 SW | 223 44.9 54.9 WSW | 247
12/1/22 - 0410 12.8 91 10.7 12.4 SW | 224 45.2 52.0 WSW | 237
12/1/22 - 0405 12.7 91 10.6 12.3 SW | 224 42.7 47.6 WSW | 246
12/1/22 - 0400 12.8 91 10.7 12.4 SW | 222 43.6 49.5 SSW | 203
12/1/22 - 0355 12.7 91 10.6 12.3 SW | 224 46.5 52.5 WSW | 237
12/1/22 - 0350 12.8 91 10.7 12.4 SW | 222 46.0 51.4 SW | 222
12/1/22 - 0345 12.7 91 10.6 12.3 SW | 229 45.2 52.6 WSW | 247
12/1/22 - 0340 12.7 91 10.6 12.3 SW | 223 48.0 57.6 SW | 236
12/1/22 - 0335 12.7 91 10.6 12.3 SW | 223 45.7 51.3 WSW | 243
12/1/22 - 0330 12.8 91 10.7 12.4 SW | 224 44.8 50.1 SW | 222
12/1/22 - 0325 12.8 91 10.7 12.4 SW | 222 46.9 55.2 SSW | 213
12/1/22 - 0320 12.8 91 10.7 12.4 SW | 223 47.3 52.8 SSW | 213
12/1/22 - 0315 13.0 91 10.9 12.6 SW | 219 47.1 54.6 SW | 233
12/1/22 - 0310 13.0 91 10.8 12.6 SW | 223 46.3 55.0 SW | 227
12/1/22 - 0305 12.9 91 10.7 12.4 SW | 221 47.3 53.3 WSW | 242
12/1/22 - 0300 12.9 91 10.8 12.5 SW | 227 45.9 52.2 SW | 222
12/1/22 - 0255 12.8 91 10.8 12.4 SW | 226 46.6 56.2 SW | 226
12/1/22 - 0250 12.7 91 10.6 12.3 SW | 223 51.1 55.4 SW | 228
12/1/22 - 0245 12.8 91 10.7 12.4 SW | 224 48.6 52.9 WSW | 242
12/1/22 - 0240 12.7 91 10.6 12.3 SW | 225 50.5 55.4 WSW | 237
12/1/22 - 0235 12.5 91 10.4 12.1 SW | 226 53.1 56.4 SW | 224
12/1/22 - 0230 12.2 91 10.1 11.9 SW | 225 49.9 55.2 WSW | 246
12/1/22 - 0225 12.2 91 9.9 11.8 SW | 225 50.9 55.3 SSW | 206
12/1/22 - 0220 12.2 91 10.1 11.9 SW | 227 49.7 54.2 SW | 230
12/1/22 - 0215 12.4 91 10.2 12.0 SW | 228 50.3 55.1 SW | 235
12/1/22 - 0210 12.4 91 10.2 12.0 SW | 227 51.5 56.2 WSW | 239
12/1/22 - 0205 12.5 91 10.3 12.1 SW | 224 47.7 55.4 SW | 229
12/1/22 - 0200 12.4 91 10.2 12.0 SW | 225 50.7 56.6 WSW | 240
12/1/22 - 0155 12.4 91 10.2 12.0 SW | 228 50.1 55.0 SW | 233
12/1/22 - 0150 12.2 91 10.1 11.9 SW | 227 53.2 59.6 WSW | 240
12/1/22 - 0145 12.2 91 10.1 11.9 SW | 228 50.9 56.8 SW | 236
12/1/22 - 0140 12.2 91 10.0 11.9 SW | 231 51.9 59.0 WSW | 247
12/1/22 - 0135 12.4 91 10.2 12.0 SW | 229 51.6 57.0 SW | 230
12/1/22 - 0130 12.4 91 10.2 12.0 SW | 230 51.9 59.0 WSW | 243
12/1/22 - 0125 12.2 90 10.0 11.8 SW | 228 53.1 58.6 WSW | 238
12/1/22 - 0120 12.3 91 10.1 11.9 SW | 230 54.3 58.4 SW | 220
12/1/22 - 0115 12.5 91 10.3 12.1 SW | 226 54.8 60.9 WSW | 238
12/1/22 - 0110 12.6 91 10.5 12.2 SW | 225 56.7 61.3 WSW | 241
12/1/22 - 0105 12.8 91 10.7 12.4 SW | 224 55.9 62.2 SW | 230
12/1/22 - 0100 13.0 91 10.8 12.5 SW | 226 56.8 61.7 SW | 228
12/1/22 - 0055 13.1 91 11.0 12.7 SW | 226 56.7 62.9 SW | 226
12/1/22 - 0050 13.0 91 10.8 12.6 SW | 225 56.8 62.4 WSW | 243
12/1/22 - 0045 13.2 91 11.1 12.8 SW | 223 54.2 60.7 SSW | 206
12/1/22 - 0040 13.0 91 10.9 12.6 SW | 228 56.4 61.8 SW | 236
12/1/22 - 0035 13.1 91 11.0 12.7 SW | 226 56.8 63.5 WSW | 239
12/1/22 - 0030 13.2 91 11.1 12.8 SW | 225 56.1 61.7 SW | 231
12/1/22 - 0025 13.2 91 11.1 12.8 SW | 229 56.2 62.5 SW | 236
12/1/22 - 0020 13.3 91 11.2 12.9 SW | 229 57.0 63.3 SW | 226
12/1/22 - 0015 13.3 91 11.2 12.9 SW | 232 58.1 64.4 WSW | 241
12/1/22 - 0010 13.4 91 11.4 13.0 SW | 232 58.0 65.2 WSW | 237
12/1/22 - 0005 13.4 91 11.3 13.0 SW | 229 59.7 67.1 SW | 215
12/1/22 - 0000 13.6 91 11.5 13.1 SW | 230 59.2 65.3 WSW | 243
11/30/22 - 2355 13.6 91 11.5 13.1 SW | 230 59.0 66.6 WSW | 237
11/30/22 - 2350 13.7 91 11.7 13.3 SW | 226 59.2 66.4 SW | 227
11/30/22 - 2345 13.7 91 11.6 13.2 SW | 230 61.4 67.4 WSW | 238
11/30/22 - 2340 13.7 92 11.6 13.2 SW | 227 64.4 70.0 SW | 226
11/30/22 - 2335 13.6 92 11.5 13.1 SW | 229 66.8 74.2 SW | 230
11/30/22 - 2330 13.6 91 11.5 13.1 SW | 222 65.2 71.0 SW | 234
11/30/22 - 2325 13.7 91 11.6 13.2 SW | 224 63.8 68.3 WSW | 240
11/30/22 - 2320 13.7 92 11.6 13.2 SW | 224 61.2 68.1 SW | 235
11/30/22 - 2315 13.7 91 11.6 13.2 SW | 227 62.0 67.6 WSW | 239
11/30/22 - 2310 13.7 91 11.6 13.2 SW | 224 60.5 67.3 WSW | 243
11/30/22 - 2305 13.9 92 11.9 13.5 SW | 228 60.6 64.6 SSW | 199
11/30/22 - 2300 13.8 91 11.7 13.4 SW | 226 61.7 67.4 WSW | 239
11/30/22 - 2255 13.8 92 11.8 13.4 SW | 224 60.1 68.2 SSW | 213
11/30/22 - 2250 13.8 91 11.7 13.4 SW | 230 59.5 64.5 WSW | 243
11/30/22 - 2245 13.8 91 11.7 13.4 SW | 226 60.2 65.5 WSW | 242
11/30/22 - 2240 13.8 92 11.8 13.4 SW | 233 60.2 66.0 SW | 226
11/30/22 - 2235 13.8 91 11.8 13.4 SW | 231 59.3 65.8 WSW | 248
11/30/22 - 2230 13.8 91 11.8 13.4 SW | 227 61.8 67.6 SSE | 162
11/30/22 - 2225 13.8 91 11.7 13.4 SW | 227 60.4 68.9 SW | 226
11/30/22 - 2220 13.9 91 11.9 13.5 SW | 227 59.8 68.3 WSW | 244
11/30/22 - 2215 13.9 92 11.9 13.5 SW | 227 57.0 62.7 WSW | 244
11/30/22 - 2210 13.8 91 11.8 13.4 SW | 231 56.5 63.2 WSW | 238
11/30/22 - 2205 13.8 91 11.8 13.4 SW | 229 56.8 64.1 SW | 222
11/30/22 - 2200 13.8 91 11.7 13.4 SW | 227 54.7 61.1 WSW | 245
11/30/22 - 2155 13.9 91 11.8 13.5 SW | 226 56.7 62.6 WSW | 247
11/30/22 - 2150 14.0 92 12.0 13.6 SW | 229 54.8 60.3 SW | 233
11/30/22 - 2145 13.9 91 11.9 13.5 SW | 227 53.0 60.0 WSW | 248
11/30/22 - 2140 13.9 91 11.9 13.5 SW | 225 55.1 61.3 WSW | 243
Max 15.7 93 13.9 15.3 - 66.8 85.0 -
Avg 14.1 92 12.1 13.7 - 51.1 59.6 -
Min 12.2 90 9.9 11.8 - 41.0 46.8 -